Time;durP1;ratioP1;P1;durP2;ratioP2;P2;SDS_P1;SDS_P2;PMS_P1;PMS_P2;Temp;Humidity;BMP_temperature;BMP_pressure;BME280_temperature;BME280_humidity;BME280_pressure;Samples;Min_cycle;Max_cycle;Signal;HPM_P1;HPM_P2
2023/12/07 00:01:04;;;;;;;53.23;31.50;;;5.30;53.90;;;;;;5066664;28;20174;-88
2023/12/07 00:03:30;;;;;;;50.57;30.43;;;5.30;53.90;;;;;;5071736;28;20351;-89
2023/12/07 00:05:55;;;;;;;51.30;30.67;;;5.30;53.90;;;;;;5066900;28;20224;-88
2023/12/07 00:08:21;;;;;;;52.23;30.73;;;5.40;54.00;;;;;;5066363;28;20250;-89
2023/12/07 00:10:46;;;;;;;48.23;30.20;;;5.40;54.00;;;;;;5082275;28;20194;-89
2023/12/07 00:13:12;;;;;;;54.93;30.20;;;5.40;54.00;;;;;;5052206;28;20178;-89
2023/12/07 00:15:38;;;;;;;49.60;31.00;;;5.30;54.00;;;;;;5085972;28;20180;-89
2023/12/07 00:18:04;;;;;;;54.07;31.17;;;5.30;54.00;;;;;;5072501;28;20668;-88
2023/12/07 00:20:30;;;;;;;51.63;31.50;;;5.40;54.10;;;;;;5058468;28;20216;-88
2023/12/07 00:22:55;;;;;;;52.30;31.20;;;5.40;54.00;;;;;;5053928;28;20205;-89
2023/12/07 00:25:21;;;;;;;51.97;29.87;;;5.40;54.00;;;;;;5085225;28;20220;-89
2023/12/07 00:27:51;;;;;;;52.63;30.43;;;5.40;54.00;;;;;;5082828;28;20187;-88
2023/12/07 00:30:16;;;;;;;53.40;30.57;;;5.40;54.10;;;;;;5075947;28;20221;-89
2023/12/07 00:32:46;;;;;;;56.80;32.77;;;5.40;54.20;;;;;;5062654;28;20212;-89
2023/12/07 00:35:12;;;;;;;50.90;30.33;;;5.50;54.30;;;;;;5055516;28;20642;-89
2023/12/07 00:37:38;;;;;;;56.97;31.83;;;5.40;54.10;;;;;;5084872;28;20249;-89
2023/12/07 00:40:04;;;;;;;58.20;33.43;;;5.40;54.10;;;;;;5070941;28;20177;-90
2023/12/07 00:42:30;;;;;;;76.33;41.07;;;5.40;54.20;;;;;;5091703;28;21049;-88
2023/12/07 00:44:57;;;;;;;60.57;35.07;;;5.40;54.20;;;;;;5080443;28;20255;-89
2023/12/07 00:47:22;;;;;;;54.17;32.27;;;5.40;54.20;;;;;;5060925;28;20254;-89
2023/12/07 00:49:48;;;;;;;58.07;34.83;;;5.40;54.20;;;;;;5089210;28;20227;-89
2023/12/07 00:52:14;;;;;;;64.00;36.57;;;5.60;54.40;;;;;;5087285;28;20176;-89
2023/12/07 00:54:40;;;;;;;62.50;37.47;;;5.40;54.30;;;;;;5062627;28;20177;-89
2023/12/07 00:57:06;;;;;;;73.00;42.03;;;5.40;54.30;;;;;;5066467;28;20225;-88
2023/12/07 00:59:33;;;;;;;80.40;43.13;;;5.40;54.30;;;;;;5077332;28;20200;-88
2023/12/07 01:02:08;;;;;;;72.67;43.07;;;5.40;54.30;;;;;;5087314;28;20276;-89
2023/12/07 01:04:34;;;;;;;62.93;36.87;;;5.60;54.50;;;;;;5071769;28;20177;-87
2023/12/07 01:07:00;;;;;;;61.20;33.67;;;5.50;54.40;;;;;;5057507;28;20239;-89
2023/12/07 01:09:26;;;;;;;54.07;33.17;;;5.50;54.40;;;;;;5078688;28;20235;-89
2023/12/07 01:11:52;;;;;;;56.13;33.03;;;5.60;54.50;;;;;;5059739;28;20185;-88
2023/12/07 01:14:18;;;;;;;60.70;33.87;;;5.50;54.40;;;;;;5062581;28;20524;-88
2023/12/07 01:16:44;;;;;;;58.23;33.87;;;5.60;54.50;;;;;;5074256;28;20182;-89
2023/12/07 01:19:13;;;;;;;56.87;33.87;;;5.60;54.50;;;;;;5063533;28;20652;-88
2023/12/07 01:21:39;;;;;;;57.20;32.03;;;5.60;54.50;;;;;;5069271;28;20193;-89
2023/12/07 01:24:05;;;;;;;56.30;33.00;;;5.50;54.40;;;;;;5069386;28;20279;-88
2023/12/07 01:26:31;;;;;;;53.03;30.83;;;5.50;54.40;;;;;;5067667;28;20182;-89
2023/12/07 01:28:56;;;;;;;56.03;32.40;;;5.50;54.50;;;;;;5087322;28;20194;-88
2023/12/07 01:31:22;;;;;;;60.43;33.17;;;5.50;55.10;;;;;;5082521;28;20180;-89
2023/12/07 01:33:47;;;;;;;59.27;32.13;;;5.50;54.60;;;;;;5073937;28;20180;-87
2023/12/07 01:36:13;;;;;;;53.43;31.17;;;5.50;54.70;;;;;;5080327;28;20673;-89
2023/12/07 01:38:38;;;;;;;56.07;32.30;;;5.50;54.70;;;;;;5063336;28;20177;-88
2023/12/07 01:41:04;;;;;;;62.30;32.83;;;5.60;54.80;;;;;;5086039;28;20273;-89
2023/12/07 01:43:30;;;;;;;57.93;30.80;;;5.50;54.70;;;;;;5074214;28;20212;-89
2023/12/07 01:45:57;;;;;;;52.47;31.27;;;5.50;54.70;;;;;;5084331;28;20658;-88
2023/12/07 01:48:26;;;;;;;61.13;32.70;;;5.50;54.70;;;;;;5083223;28;20191;-88
2023/12/07 01:50:53;;;;;;;55.10;32.57;;;5.60;55.30;;;;;;5075285;28;20184;-88
2023/12/07 01:53:21;;;;;;;57.80;31.57;;;5.70;54.90;;;;;;5069635;28;20184;-88
2023/12/07 01:55:47;;;;;;;58.07;32.03;;;5.70;55.00;;;;;;5070980;28;20243;-88
2023/12/07 01:58:14;;;;;;;55.63;31.53;;;5.60;54.90;;;;;;5071800;28;20232;-88
2023/12/07 02:00:40;;;;;;;62.43;32.93;;;5.60;55.00;;;;;;5070341;28;20676;-89
2023/12/07 02:03:06;;;;;;;62.97;32.07;;;5.60;55.00;;;;;;5083987;28;20209;-88
2023/12/07 02:05:32;;;;;;;58.23;31.97;;;5.60;55.00;;;;;;5057570;28;20235;-89
2023/12/07 02:07:58;;;;;;;62.70;32.73;;;5.60;54.90;;;;;;5053315;28;20215;-87
2023/12/07 02:10:24;;;;;;;59.53;32.20;;;5.60;55.00;;;;;;5068447;28;20204;-88
2023/12/07 02:12:52;;;;;;;63.80;33.30;;;5.60;55.00;;;;;;5085236;28;20181;-89
2023/12/07 02:15:19;;;;;;;68.47;33.93;;;5.70;55.10;;;;;;5072847;28;20542;-90
2023/12/07 02:18:09;;;;;;;69.83;34.93;;;5.80;55.10;;;;;;5070142;28;20182;-88
2023/12/07 02:21:12;;;;;;;59.37;30.83;;;5.70;55.10;;;;;;5083297;28;20204;-88
2023/12/07 02:23:41;;;;;;;68.03;34.80;;;5.70;55.20;;;;;;5075175;28;20200;-88
2023/12/07 02:26:08;;;;;;;63.57;33.17;;;5.70;55.20;;;;;;5068649;28;20197;-89
2023/12/07 02:28:34;;;;;;;66.33;34.27;;;5.70;55.20;;;;;;5070074;28;20268;-88
2023/12/07 02:30:59;;;;;;;64.87;32.97;;;5.70;55.20;;;;;;5070781;28;20657;-89
2023/12/07 02:33:25;;;;;;;65.43;34.07;;;5.70;55.20;;;;;;5066113;28;20677;-89
2023/12/07 02:35:51;;;;;;;70.43;34.03;;;5.70;55.20;;;;;;5071153;28;20192;-89
2023/12/07 02:38:18;;;;;;;72.60;34.10;;;5.70;55.20;;;;;;5054325;28;20185;-88
2023/12/07 02:40:45;;;;;;;69.07;33.63;;;5.70;55.30;;;;;;5069616;28;20177;-88
2023/12/07 02:43:11;;;;;;;71.77;33.57;;;5.70;55.30;;;;;;5084001;28;20208;-89
2023/12/07 02:45:37;;;;;;;60.30;31.23;;;5.70;55.30;;;;;;5080995;28;20285;-88
2023/12/07 02:48:03;;;;;;;62.77;32.27;;;5.70;55.30;;;;;;5061984;28;20764;-89
2023/12/07 02:50:28;;;;;;;66.10;33.67;;;5.70;55.30;;;;;;5086394;28;20181;-88
2023/12/07 02:52:55;;;;;;;72.57;35.30;;;5.80;55.30;;;;;;5089003;28;20311;-88
2023/12/07 02:55:21;;;;;;;73.00;33.80;;;5.70;55.20;;;;;;5086870;28;20587;-88
2023/12/07 02:57:47;;;;;;;65.23;33.10;;;5.70;55.20;;;;;;5078204;28;20272;-89
2023/12/07 03:00:14;;;;;;;71.17;34.10;;;5.70;55.30;;;;;;5056614;28;20188;-88
2023/12/07 03:02:40;;;;;;;68.17;32.80;;;5.70;55.30;;;;;;5059026;28;20208;-88
2023/12/07 03:05:07;;;;;;;66.33;33.90;;;5.70;55.40;;;;;;5071303;28;20237;-88
2023/12/07 03:07:34;;;;;;;68.57;33.90;;;5.70;55.40;;;;;;5089640;28;20174;-88
2023/12/07 03:09:59;;;;;;;66.63;34.00;;;5.80;55.40;;;;;;5070393;28;20188;-88
2023/12/07 03:12:25;;;;;;;61.03;31.73;;;5.80;55.40;;;;;;5062703;28;20182;-88
2023/12/07 03:14:51;;;;;;;72.30;34.13;;;5.80;55.40;;;;;;5058768;28;20212;-89
2023/12/07 03:17:17;;;;;;;64.20;33.73;;;5.80;55.40;;;;;;5068401;28;20187;-88
2023/12/07 03:19:42;;;;;;;58.37;31.60;;;5.90;55.50;;;;;;5059687;28;20637;-88
2023/12/07 03:22:08;;;;;;;63.47;32.20;;;5.80;55.40;;;;;;5059930;28;20216;-88
2023/12/07 03:24:38;;;;;;;62.20;32.77;;;5.80;55.50;;;;;;5066284;28;20195;-88
2023/12/07 03:27:04;;;;;;;66.83;32.60;;;5.80;55.40;;;;;;5086754;28;20177;-88
2023/12/07 03:29:31;;;;;;;64.43;32.43;;;5.80;55.40;;;;;;5083051;28;20185;-88
2023/12/07 03:31:57;;;;;;;58.73;31.43;;;5.90;55.50;;;;;;5086922;28;20206;-88
2023/12/07 03:34:23;;;;;;;60.83;30.73;;;5.90;55.50;;;;;;5078832;28;20258;-88
2023/12/07 03:36:49;;;;;;;66.10;32.63;;;5.80;55.50;;;;;;5071863;28;20325;-88
2023/12/07 03:39:15;;;;;;;59.77;30.37;;;5.80;55.50;;;;;;5086898;28;20662;-88
2023/12/07 03:41:41;;;;;;;56.97;31.17;;;5.80;55.50;;;;;;5086330;28;20247;-89
2023/12/07 03:44:07;;;;;;;60.33;29.87;;;5.80;55.50;;;;;;5074564;28;20172;-88
2023/12/07 03:46:33;;;;;;;65.03;30.43;;;5.80;55.50;;;;;;5073589;28;20178;-88
2023/12/07 03:48:59;;;;;;;58.73;31.43;;;5.80;55.50;;;;;;5067595;28;20195;-88
2023/12/07 03:51:26;;;;;;;64.80;31.53;;;5.90;55.60;;;;;;5079306;28;20188;-89
2023/12/07 03:53:52;;;;;;;58.50;30.27;;;5.90;55.60;;;;;;5086156;28;20274;-88
2023/12/07 03:56:36;;;;;;;52.33;27.47;;;5.80;55.50;;;;;;5069350;28;20693;-89
2023/12/07 03:59:02;;;;;;;50.97;27.87;;;5.90;55.60;;;;;;5067919;28;20185;-88
2023/12/07 04:01:29;;;;;;;52.30;28.47;;;5.80;55.50;;;;;;5078881;28;20523;-88
2023/12/07 04:03:56;;;;;;;51.87;28.23;;;5.80;55.60;;;;;;5070656;28;20736;-88
2023/12/07 04:06:23;;;;;;;60.10;28.00;;;5.80;55.50;;;;;;5070397;28;20177;-88
2023/12/07 04:08:49;;;;;;;52.40;29.10;;;5.90;55.70;;;;;;5080004;28;20187;-88
2023/12/07 04:11:15;;;;;;;48.83;26.73;;;5.80;55.60;;;;;;5071637;28;20185;-89
2023/12/07 04:13:42;;;;;;;54.53;27.87;;;5.90;55.80;;;;;;5073845;28;20188;-88
2023/12/07 04:16:10;;;;;;;55.33;27.93;;;5.80;55.70;;;;;;5061059;28;20182;-88
2023/12/07 04:18:36;;;;;;;51.30;27.00;;;5.90;55.70;;;;;;5075726;28;20360;-89
2023/12/07 04:21:02;;;;;;;50.70;28.00;;;5.90;55.70;;;;;;5085595;28;20192;-88
2023/12/07 04:23:28;;;;;;;49.37;27.30;;;5.90;55.70;;;;;;5070674;28;20229;-89
2023/12/07 04:25:54;;;;;;;53.10;28.43;;;5.90;55.70;;;;;;5071328;28;20220;-88
2023/12/07 04:28:20;;;;;;;51.90;28.10;;;5.90;55.80;;;;;;5083361;28;20488;-88
2023/12/07 04:31:29;;;;;;;47.63;27.30;;;5.90;55.80;;;;;;5061691;28;20189;-88
2023/12/07 04:33:55;;;;;;;50.10;28.33;;;5.80;55.70;;;;;;5081725;28;20187;-89
2023/12/07 04:36:20;;;;;;;54.73;29.17;;;5.80;55.80;;;;;;5081294;28;20597;-89
2023/12/07 04:38:46;;;;;;;52.27;30.20;;;5.90;55.90;;;;;;5085095;28;20189;-90
2023/12/07 04:41:11;;;;;;;53.60;30.47;;;5.80;55.90;;;;;;5051081;28;20181;-88
2023/12/07 04:43:37;;;;;;;59.23;32.20;;;5.90;56.00;;;;;;5072096;28;20216;-88
2023/12/07 04:46:03;;;;;;;56.10;34.13;;;5.80;55.90;;;;;;5059124;28;20281;-89
2023/12/07 04:48:29;;;;;;;65.83;35.63;;;5.80;55.80;;;;;;5057919;28;20276;-88
2023/12/07 04:50:55;;;;;;;63.13;35.90;;;5.90;55.90;;;;;;5073208;28;20208;-89
2023/12/07 04:53:24;;;;;;;68.23;35.97;;;5.90;55.90;;;;;;5068992;28;20185;-89
2023/12/07 04:55:50;;;;;;;66.37;37.83;;;5.90;55.90;;;;;;5071971;28;20218;-89
2023/12/07 04:58:15;;;;;;;61.70;37.17;;;5.90;55.90;;;;;;5063856;28;20188;-88
2023/12/07 05:00:41;;;;;;;68.47;39.13;;;5.90;56.00;;;;;;5082330;28;20189;-88
2023/12/07 05:03:07;;;;;;;67.00;39.63;;;5.90;55.90;;;;;;5059718;28;20351;-90
2023/12/07 05:05:32;;;;;;;68.93;39.13;;;5.90;55.90;;;;;;5086135;28;20205;-89
2023/12/07 05:07:58;;;;;;;66.70;38.43;;;5.90;55.90;;;;;;5098316;28;20176;-89
2023/12/07 05:10:23;;;;;;;66.27;37.90;;;5.90;55.90;;;;;;5071185;28;20185;-89
2023/12/07 05:12:50;;;;;;;64.37;36.73;;;5.90;55.90;;;;;;5077129;28;20646;-88
2023/12/07 05:15:15;;;;;;;61.37;35.70;;;5.90;55.90;;;;;;5058561;28;20183;-89
2023/12/07 05:17:41;;;;;;;60.37;34.67;;;5.90;55.90;;;;;;5070015;28;20331;-87
2023/12/07 05:20:07;;;;;;;56.73;34.20;;;5.90;55.90;;;;;;5085369;28;20176;-88
2023/12/07 05:22:33;;;;;;;64.77;35.17;;;5.90;55.90;;;;;;5084019;28;20209;-90
2023/12/07 05:24:58;;;;;;;59.07;34.50;;;6.00;56.00;;;;;;5074446;28;20193;-88
2023/12/07 05:27:24;;;;;;;54.47;32.23;;;6.00;56.00;;;;;;5053213;28;20269;-88
2023/12/07 05:29:49;;;;;;;58.07;31.73;;;5.90;55.90;;;;;;5080739;28;20830;-90
2023/12/07 05:32:15;;;;;;;50.73;31.13;;;5.90;55.90;;;;;;5086743;28;20223;-91
2023/12/07 05:34:41;;;;;;;53.40;30.40;;;5.90;55.90;;;;;;5068854;28;20181;-89
2023/12/07 05:37:07;;;;;;;52.00;28.67;;;5.90;55.90;;;;;;5069993;28;20197;-89
2023/12/07 05:39:33;;;;;;;44.00;25.67;;;5.90;55.90;;;;;;5067973;28;20189;-91
2023/12/07 05:41:59;;;;;;;40.97;26.20;;;5.90;56.00;;;;;;5057176;28;20209;-89
2023/12/07 05:44:25;;;;;;;42.60;25.77;;;5.90;56.00;;;;;;5078198;28;20538;-87
2023/12/07 05:46:51;;;;;;;42.50;26.23;;;6.00;56.00;;;;;;5048810;28;20205;-90
2023/12/07 05:49:40;;;;;;;39.37;24.87;;;5.90;56.00;;;;;;5067007;28;20207;-88
2023/12/07 05:52:06;;;;;;;42.53;25.43;;;5.90;56.00;;;;;;5067402;28;20340;-89
2023/12/07 05:54:31;;;;;;;40.93;24.97;;;5.90;55.90;;;;;;5076451;28;20283;-89
2023/12/07 05:56:57;;;;;;;44.73;25.10;;;6.00;56.00;;;;;;5064329;28;20221;-90
2023/12/07 05:59:23;;;;;;;43.73;25.40;;;5.90;55.90;;;;;;5072550;28;20177;-88
2023/12/07 06:01:52;;;;;;;43.40;25.50;;;5.90;56.00;;;;;;5066578;28;20188;-90
2023/12/07 06:04:17;;;;;;;39.97;24.27;;;5.90;56.00;;;;;;5067953;28;20217;-89
2023/12/07 06:06:43;;;;;;;41.93;24.60;;;5.90;56.00;;;;;;5060096;28;20229;-87
2023/12/07 06:09:08;;;;;;;39.13;24.23;;;5.90;56.00;;;;;;5059022;28;20190;-88
2023/12/07 06:11:37;;;;;;;41.13;25.17;;;5.90;56.00;;;;;;5057109;28;20254;-88
2023/12/07 06:17:25;;;;;;;37.07;23.30;;;5.90;56.00;;;;;;5062653;28;20180;-89
2023/12/07 06:19:50;;;;;;;40.53;24.53;;;5.90;56.00;;;;;;5064391;28;20188;-86
2023/12/07 06:22:16;;;;;;;39.67;23.73;;;5.90;56.00;;;;;;5078899;28;20213;-89
2023/12/07 06:24:41;;;;;;;39.80;23.80;;;5.90;56.10;;;;;;5068683;28;20259;-88
2023/12/07 06:27:07;;;;;;;37.20;23.63;;;5.90;56.10;;;;;;5080201;28;20250;-91
2023/12/07 06:29:33;;;;;;;40.60;24.40;;;5.90;56.10;;;;;;5080422;28;20185;-88
2023/12/07 06:31:59;;;;;;;40.17;24.50;;;5.90;56.00;;;;;;5066031;28;20216;-87
2023/12/07 06:34:25;;;;;;;37.20;24.00;;;5.90;56.00;;;;;;5065509;28;20633;-86
2023/12/07 06:36:51;;;;;;;40.47;25.23;;;5.90;56.10;;;;;;5065417;28;20188;-88
2023/12/07 06:39:16;;;;;;;38.07;25.20;;;6.00;56.20;;;;;;5066617;28;20188;-90
2023/12/07 06:41:42;;;;;;;37.37;23.60;;;5.90;56.10;;;;;;5058875;28;20859;-86
2023/12/07 06:44:08;;;;;;;38.73;25.03;;;6.00;56.20;;;;;;5055980;28;20189;-89
2023/12/07 06:46:34;;;;;;;37.50;24.43;;;5.90;56.20;;;;;;5058135;28;20224;-89
2023/12/07 06:49:00;;;;;;;38.80;24.17;;;5.90;56.20;;;;;;5063153;28;20208;-88
2023/12/07 06:51:25;;;;;;;43.40;25.67;;;6.00;56.20;;;;;;5063385;28;20178;-87
2023/12/07 06:53:51;;;;;;;41.47;25.80;;;5.90;56.10;;;;;;5049429;28;20192;-86
2023/12/07 06:56:17;;;;;;;44.43;26.00;;;6.00;56.30;;;;;;5072135;28;20240;-88
2023/12/07 06:58:43;;;;;;;38.67;24.73;;;6.00;56.30;;;;;;5078244;28;20194;-86
2023/12/07 07:01:08;;;;;;;41.27;26.10;;;6.00;56.20;;;;;;5069987;28;20181;-87
2023/12/07 07:03:35;;;;;;;40.30;25.83;;;6.00;56.20;;;;;;5069269;28;20213;-87
2023/12/07 07:06:00;;;;;;;40.23;24.80;;;6.10;56.30;;;;;;5064221;28;20691;-89
2023/12/07 07:08:26;;;;;;;42.60;26.37;;;6.00;56.30;;;;;;5061824;28;20178;-89
2023/12/07 07:10:52;;;;;;;40.70;24.80;;;6.00;56.40;;;;;;5065150;28;20220;-88
2023/12/07 07:13:20;;;;;;;37.50;24.30;;;6.00;56.40;;;;;;5059518;28;20178;-87
2023/12/07 07:15:47;;;;;;;38.00;25.00;;;6.00;56.40;;;;;;5064104;28;20185;-89
2023/12/07 07:18:13;;;;;;;39.33;25.33;;;6.00;56.40;;;;;;5082704;28;20228;-86
2023/12/07 07:24:01;;;;;;;43.80;25.73;;;6.00;56.50;;;;;;5060199;28;20308;-86
2023/12/07 07:26:27;;;;;;;39.10;26.30;;;6.00;56.40;;;;;;5083107;28;20260;-87
2023/12/07 07:28:53;;;;;;;41.80;26.67;;;6.00;56.40;;;;;;5070199;28;20276;-88
2023/12/07 07:31:19;;;;;;;39.93;24.83;;;6.00;56.40;;;;;;5068386;28;20178;-86
2023/12/07 07:33:46;;;;;;;39.73;25.60;;;6.00;56.50;;;;;;5063108;28;20715;-85
2023/12/07 07:36:13;;;;;;;40.93;26.40;;;6.00;56.50;;;;;;5060182;28;20235;-88
2023/12/07 07:38:39;;;;;;;41.40;26.23;;;6.00;56.40;;;;;;5056802;28;20174;-86
2023/12/07 07:41:05;;;;;;;40.90;26.80;;;6.00;56.40;;;;;;5068680;28;20188;-89
2023/12/07 07:43:30;;;;;;;40.03;25.53;;;6.10;56.50;;;;;;5063390;28;20210;-88
2023/12/07 07:45:56;;;;;;;41.73;24.47;;;6.10;56.50;;;;;;5061059;28;20196;-88
2023/12/07 07:48:22;;;;;;;36.70;24.60;;;6.10;57.00;;;;;;5068616;28;20178;-87
2023/12/07 07:50:47;;;;;;;37.80;26.40;;;6.10;56.50;;;;;;5077034;28;20531;-85
2023/12/07 07:53:13;;;;;;;40.77;27.93;;;6.10;56.50;;;;;;5069691;28;20239;-85
2023/12/07 07:55:39;;;;;;;39.27;26.67;;;6.10;56.50;;;;;;5053987;28;20221;-86
2023/12/07 07:58:04;;;;;;;36.10;26.10;;;6.20;56.60;;;;;;5058607;28;20185;-88
2023/12/07 08:00:32;;;;;;;41.27;26.33;;;6.20;56.60;;;;;;5055910;28;20181;-89
2023/12/07 08:02:58;;;;;;;37.67;25.77;;;6.10;56.50;;;;;;5063328;28;20316;-86
2023/12/07 08:05:24;;;;;;;41.47;26.27;;;6.30;56.60;;;;;;5062816;28;20530;-90
2023/12/07 08:07:50;;;;;;;37.87;25.43;;;6.20;56.60;;;;;;5057945;28;20220;-88
2023/12/07 08:10:24;;;;;;;43.00;27.77;;;6.20;56.60;;;;;;5064029;28;20207;-89
2023/12/07 08:12:50;;;;;;;40.97;26.93;;;6.20;56.50;;;;;;5065039;28;20196;-87
2023/12/07 08:15:16;;;;;;;37.57;25.83;;;6.20;56.50;;;;;;5055389;28;20185;-89
2023/12/07 08:17:45;;;;;;;38.20;25.53;;;6.20;56.60;;;;;;5079955;28;20795;-89
2023/12/07 08:20:12;;;;;;;39.93;26.97;;;6.20;56.50;;;;;;5066210;28;20211;-87
2023/12/07 08:22:38;;;;;;;38.87;26.23;;;6.20;56.60;;;;;;5069199;28;20570;-93
2023/12/07 08:25:05;;;;;;;39.50;26.57;;;6.30;56.60;;;;;;5079527;28;20185;-87
2023/12/07 08:27:32;;;;;;;39.63;26.87;;;6.20;56.50;;;;;;5082141;28;20189;-90
2023/12/07 08:29:58;;;;;;;39.37;26.53;;;6.20;56.50;;;;;;5085108;28;20209;-90
2023/12/07 08:32:25;;;;;;;42.63;27.77;;;6.30;56.60;;;;;;5079736;28;20227;-88
2023/12/07 08:34:52;;;;;;;43.60;26.50;;;6.30;56.60;;;;;;5064029;28;20185;-90
2023/12/07 08:37:17;;;;;;;34.30;24.87;;;6.30;56.60;;;;;;5064312;28;20242;-93
2023/12/07 08:39:43;;;;;;;41.13;27.20;;;6.30;56.50;;;;;;5054024;28;20194;-89
2023/12/07 08:42:09;;;;;;;38.97;26.50;;;6.30;56.60;;;;;;5066944;28;20209;-91
2023/12/07 08:44:34;;;;;;;45.67;27.07;;;6.30;56.50;;;;;;5063328;28;20182;-88
2023/12/07 08:47:00;;;;;;;38.13;25.83;;;6.30;56.50;;;;;;5067266;28;20189;-90
2023/12/07 08:49:26;;;;;;;39.93;26.83;;;6.30;56.50;;;;;;5066514;28;20710;-91
2023/12/07 08:51:52;;;;;;;40.83;25.80;;;6.30;56.50;;;;;;5071050;28;20234;-89
2023/12/07 08:54:18;;;;;;;40.57;27.33;;;6.30;56.50;;;;;;5069145;28;20198;-94
2023/12/07 08:56:45;;;;;;;42.73;28.33;;;6.30;56.40;;;;;;5075519;28;20217;-89
2023/12/07 08:59:11;;;;;;;37.73;25.10;;;6.40;56.50;;;;;;5058846;28;20189;-88
2023/12/07 09:01:37;;;;;;;38.77;27.83;;;6.40;56.60;;;;;;5058902;28;20188;-90
2023/12/07 09:04:03;;;;;;;40.43;29.03;;;6.40;56.50;;;;;;5061064;28;20254;-93
2023/12/07 09:06:29;;;;;;;39.17;26.77;;;6.40;56.50;;;;;;5065815;28;20634;-89
2023/12/07 09:08:55;;;;;;;41.67;27.90;;;6.30;56.40;;;;;;5066582;28;20239;-90
2023/12/07 09:11:21;;;;;;;39.63;27.37;;;6.40;56.50;;;;;;5061846;28;20189;-89
2023/12/07 09:13:47;;;;;;;41.97;28.93;;;6.40;57.00;;;;;;5065906;28;20197;-90
2023/12/07 09:16:12;;;;;;;41.43;27.87;;;6.40;56.50;;;;;;5062832;28;20201;-90
2023/12/07 09:18:38;;;;;;;40.20;27.70;;;6.40;56.50;;;;;;5085751;28;20177;-91
2023/12/07 09:21:04;;;;;;;40.23;29.20;;;6.40;56.50;;;;;;5068503;28;20192;-88
2023/12/07 09:23:31;;;;;;;42.13;28.67;;;6.40;56.50;;;;;;5059534;28;20211;-90
2023/12/07 09:25:56;;;;;;;42.27;28.63;;;6.40;56.50;;;;;;5068264;28;20196;-88
2023/12/07 09:28:22;;;;;;;39.83;29.03;;;6.40;56.50;;;;;;5061937;28;20852;-91
2023/12/07 09:30:48;;;;;;;39.80;26.67;;;6.60;56.70;;;;;;5084986;28;20280;-89
2023/12/07 09:33:13;;;;;;;43.27;28.63;;;6.50;56.60;;;;;;5067333;28;20176;-88
2023/12/07 09:35:39;;;;;;;41.90;28.67;;;6.50;56.50;;;;;;5062307;28;20189;-88
2023/12/07 09:38:06;;;;;;;43.60;29.40;;;6.50;56.50;;;;;;5084942;28;20557;-91
2023/12/07 09:40:32;;;;;;;41.30;29.17;;;6.50;56.50;;;;;;5059249;28;20276;-92
2023/12/07 09:42:58;;;;;;;43.60;29.60;;;6.50;56.60;;;;;;5061485;28;20383;-89
2023/12/07 09:45:24;;;;;;;41.27;28.63;;;6.50;56.50;;;;;;5061865;28;20184;-89
2023/12/07 09:47:51;;;;;;;41.70;28.47;;;6.50;56.60;;;;;;5067992;28;20177;-90
2023/12/07 09:50:19;;;;;;;43.63;29.83;;;6.50;56.60;;;;;;5062002;28;20181;-88
2023/12/07 09:52:44;;;;;;;42.20;28.50;;;6.50;56.70;;;;;;5066368;28;20209;-89
2023/12/07 09:55:10;;;;;;;48.50;30.83;;;6.50;56.70;;;;;;5067564;28;20231;-90
2023/12/07 09:57:39;;;;;;;41.10;28.17;;;6.50;56.60;;;;;;5077794;28;20201;-90
2023/12/07 10:00:09;;;;;;;39.97;29.03;;;6.60;56.70;;;;;;5063309;28;20205;-89
2023/12/07 10:02:38;;;;;;;38.97;27.40;;;6.60;56.70;;;;;;5062518;28;20206;-89
2023/12/07 10:05:10;;;;;;;41.87;30.00;;;6.70;56.80;;;;;;5061864;28;20185;-90
2023/12/07 10:07:39;;;;;;;40.53;28.63;;;6.60;56.70;;;;;;5066878;28;20207;-89
2023/12/07 10:10:05;;;;;;;40.40;29.00;;;6.80;56.80;;;;;;5064535;28;20183;-88
2023/12/07 10:12:33;;;;;;;42.23;29.07;;;6.60;56.60;;;;;;5081468;28;20193;-89
2023/12/07 10:15:00;;;;;;;40.77;29.90;;;6.60;56.60;;;;;;5071554;28;20192;-91
2023/12/07 10:17:53;;;;;;;45.90;30.67;;;6.70;56.70;;;;;;5063352;28;20182;-93
2023/12/07 10:20:26;;;;;;;41.77;29.40;;;6.80;56.70;;;;;;5064958;28;20189;-92
2023/12/07 10:23:07;;;;;;;45.83;31.30;;;6.60;56.50;;;;;;5071602;28;20640;-92
2023/12/07 10:25:40;;;;;;;39.70;28.73;;;6.60;56.60;;;;;;5058524;28;20189;-90
2023/12/07 10:28:07;;;;;;;44.20;30.13;;;6.60;56.60;;;;;;5057886;28;20264;-89
2023/12/07 10:30:34;;;;;;;43.33;29.10;;;6.70;56.60;;;;;;5059834;28;20633;-90
2023/12/07 10:33:00;;;;;;;42.43;29.33;;;6.60;56.60;;;;;;5058175;28;20327;-90
2023/12/07 10:35:25;;;;;;;46.10;30.10;;;6.70;56.70;;;;;;5059490;28;20272;-92
2023/12/07 10:37:51;;;;;;;44.07;30.13;;;6.70;56.70;;;;;;5061535;28;20176;-93
2023/12/07 10:40:20;;;;;;;44.20;30.27;;;6.80;56.70;;;;;;5070173;28;20624;-91
2023/12/07 10:42:48;;;;;;;41.63;29.73;;;6.70;56.70;;;;;;5072802;28;20204;-91
2023/12/07 10:45:15;;;;;;;42.97;29.30;;;6.70;56.70;;;;;;5078328;28;20185;-88
2023/12/07 10:47:44;;;;;;;43.23;30.60;;;6.70;56.60;;;;;;5062529;28;20259;-89
2023/12/07 10:50:13;;;;;;;45.10;31.07;;;6.70;56.60;;;;;;5066970;28;20262;-94
2023/12/07 10:52:55;;;;;;;42.23;29.43;;;6.70;56.60;;;;;;5069010;28;20235;-93
2023/12/07 10:55:28;;;;;;;41.20;29.93;;;6.70;56.60;;;;;;5059544;28;20185;-90
2023/12/07 10:57:55;;;;;;;43.47;31.47;;;6.70;56.60;;;;;;5060698;28;20598;-94
2023/12/07 11:00:27;;;;;;;42.97;30.23;;;6.70;56.60;;;;;;5059712;28;20189;-93
2023/12/07 11:02:53;;;;;;;47.30;31.40;;;6.70;56.60;;;;;;5062682;28;20220;-91
2023/12/07 11:05:19;;;;;;;45.97;30.63;;;6.70;56.70;;;;;;5069080;28;20196;-94
2023/12/07 11:07:48;;;;;;;41.83;29.50;;;6.70;56.70;;;;;;5058309;28;20185;-90
2023/12/07 11:10:45;;;;;;;44.53;31.33;;;6.80;56.70;;;;;;5066733;28;20602;-91
2023/12/07 11:13:13;;;;;;;40.47;29.90;;;6.70;56.80;;;;;;5057648;28;20265;-90
2023/12/07 11:15:39;;;;;;;39.70;29.07;;;6.70;56.80;;;;;;5050177;28;20205;-89
2023/12/07 11:18:06;;;;;;;42.37;30.83;;;6.70;56.70;;;;;;5068443;28;20251;-89
2023/12/07 11:20:41;;;;;;;41.90;30.37;;;6.70;56.70;;;;;;5064745;28;20185;-90
2023/12/07 11:23:10;;;;;;;43.57;31.07;;;6.70;56.80;;;;;;5081694;28;20204;-90
2023/12/07 11:25:37;;;;;;;41.53;31.07;;;6.70;56.80;;;;;;5059457;28;20216;-89
2023/12/07 11:28:05;;;;;;;43.43;30.50;;;6.70;56.80;;;;;;5080859;28;20180;-89
2023/12/07 11:30:34;;;;;;;46.70;32.60;;;6.70;56.80;;;;;;5077766;28;20173;-88
2023/12/07 11:33:00;;;;;;;47.83;33.13;;;6.70;56.80;;;;;;5083456;28;20179;-89
2023/12/07 11:35:26;;;;;;;44.83;33.37;;;6.80;56.80;;;;;;5064425;28;20186;-86
2023/12/07 11:38:11;;;;;;;43.30;32.27;;;6.70;56.70;;;;;;5063077;28;20708;-90
2023/12/07 11:40:43;;;;;;;44.87;32.10;;;6.70;56.70;;;;;;5058665;28;20181;-90
2023/12/07 11:43:33;;;;;;;45.93;32.27;;;6.70;56.70;;;;;;5073789;28;20215;-90
2023/12/07 11:45:59;;;;;;;45.13;32.13;;;6.70;56.80;;;;;;5072080;28;20185;-88
2023/12/07 11:48:25;;;;;;;47.37;32.50;;;6.70;56.80;;;;;;5071793;28;20192;-90
2023/12/07 11:50:55;;;;;;;46.60;32.07;;;6.70;56.80;;;;;;5054267;28;20189;-90
2023/12/07 11:53:32;;;;;;;42.20;30.90;;;6.70;56.80;;;;;;5069210;28;20283;-90
2023/12/07 11:56:03;;;;;;;44.90;32.53;;;6.70;56.90;;;;;;5067855;28;20223;-88
2023/12/07 11:58:30;;;;;;;48.43;32.67;;;6.70;56.80;;;;;;5062131;28;20649;-87
2023/12/07 12:00:56;;;;;;;44.93;31.20;;;6.80;56.90;;;;;;5065037;28;20189;-87
2023/12/07 12:03:32;;;;;;;42.83;30.87;;;6.70;56.80;;;;;;5079091;28;20704;-87
2023/12/07 12:05:58;;;;;;;44.50;30.67;;;6.70;56.80;;;;;;5064370;28;20181;-87
2023/12/07 12:08:24;;;;;;;51.73;34.60;;;6.70;56.80;;;;;;5066511;28;20177;-87
2023/12/07 12:10:56;;;;;;;41.87;31.77;;;6.70;56.80;;;;;;5060333;28;20178;-88
2023/12/07 12:13:33;;;;;;;44.57;33.20;;;6.70;56.80;;;;;;5061324;28;20712;-87
2023/12/07 12:16:00;;;;;;;44.87;32.33;;;6.70;56.80;;;;;;5080903;28;20185;-86
2023/12/07 12:18:26;;;;;;;44.50;31.67;;;6.70;56.70;;;;;;5059717;28;20179;-86
2023/12/07 12:20:53;;;;;;;44.03;30.40;;;6.70;56.60;;;;;;5067348;28;20195;-86
2023/12/07 12:23:19;;;;;;;43.63;31.27;;;6.70;56.60;;;;;;5060115;28;20239;-87
2023/12/07 12:25:46;;;;;;;39.27;29.10;;;6.80;56.70;;;;;;5059628;28;20905;-89
2023/12/07 12:28:17;;;;;;;41.80;31.23;;;6.60;56.50;;;;;;5078815;28;20190;-87
2023/12/07 12:30:42;;;;;;;39.73;29.40;;;6.70;57.00;;;;;;5077609;28;20617;-85
2023/12/07 12:33:08;;;;;;;42.77;31.30;;;6.70;56.40;;;;;;5080746;28;20204;-86
2023/12/07 12:35:34;;;;;;;45.17;31.87;;;6.70;56.40;;;;;;5064412;28;20177;-86
2023/12/07 12:38:00;;;;;;;41.73;31.43;;;6.70;56.40;;;;;;5055009;28;20573;-87
2023/12/07 12:40:31;;;;;;;41.60;32.47;;;6.60;56.30;;;;;;5057178;28;20173;-87
2023/12/07 12:42:57;;;;;;;40.13;30.70;;;6.60;56.30;;;;;;5070538;28;20673;-86